Terminal Aerodrome Forecast
Issued by NWS Detroit/Pontiac, MI

Home | Current Version | Previous Version | Text Only | Print | Product List | Glossary On
Versions: 1 2 3 4 5 6 7 8 9 10 11 12 13 14 15 16 17 18 19 20 21 22 23 24
000
FTUS43 KDTX 280520
TAFFNT
TAF
KFNT 280520Z 2806/2906 00000KT 1SM BR SKC
      TEMPO 2806/2809 3SM BR SKC
     FM281200 VRB03KT 4SM BR SCT250
     FM281400 21005KT P6SM SCT045 SCT250
     FM282100 22006KT P6SM BKN050 BKN250=

USA.gov is the U.S. government's official web portal to all federal, state and local government web resources and services.